createdAt,value
2019-02-23T00:02:18.630Z,99.90
2019-02-23T00:04:48.321Z,99.90
2019-02-23T00:07:17.842Z,99.90
2019-02-23T00:09:47.239Z,99.90
2019-02-23T00:12:16.806Z,99.90
2019-02-23T00:14:46.318Z,99.90
2019-02-23T00:17:15.726Z,99.90
2019-02-23T00:19:45.236Z,99.90
2019-02-23T00:22:14.685Z,99.90
2019-02-23T00:24:44.129Z,99.90
2019-02-23T00:27:13.609Z,99.90
2019-02-23T00:29:42.970Z,99.90
2019-02-23T00:32:12.556Z,99.90
2019-02-23T00:34:42.293Z,99.90
2019-02-23T00:37:11.822Z,99.90
2019-02-23T00:39:41.455Z,99.90
2019-02-23T00:42:11.236Z,99.90
2019-02-23T00:44:40.724Z,99.90
2019-02-23T00:47:10.756Z,99.90
2019-02-23T00:49:40.143Z,99.90
2019-02-23T00:52:09.684Z,99.90
2019-02-23T00:54:39.276Z,99.90
2019-02-23T00:57:08.751Z,99.90
2019-02-23T00:59:38.198Z,99.90
2019-02-23T01:02:07.766Z,99.90
2019-02-23T01:04:37.239Z,99.90
2019-02-23T01:07:06.131Z,99.90
2019-02-23T01:09:35.616Z,99.90
2019-02-23T01:12:05.118Z,99.90
2019-02-23T01:14:34.517Z,99.90
2019-02-23T01:17:04.059Z,99.90
2019-02-23T01:19:33.536Z,99.90
2019-02-23T01:22:03.068Z,99.90
2019-02-23T01:24:32.472Z,99.90
2019-02-23T01:27:01.979Z,99.90
2019-02-23T01:29:31.379Z,99.90
2019-02-23T01:32:00.798Z,99.90
2019-02-23T01:34:30.353Z,99.90
2019-02-23T01:36:59.822Z,99.90
2019-02-23T01:39:29.503Z,99.90
2019-02-23T01:41:59.140Z,99.90
2019-02-23T01:44:28.655Z,99.90
2019-02-23T01:46:58.280Z,99.90
2019-02-23T01:49:28.060Z,99.90
2019-02-23T01:51:57.655Z,99.90
2019-02-23T01:54:29.238Z,99.90
2019-02-23T01:56:58.763Z,99.90
2019-02-23T01:59:28.576Z,99.90
2019-02-23T02:01:58.011Z,99.90
2019-02-23T02:04:27.628Z,99.90
2019-02-23T02:06:57.027Z,99.90
2019-02-23T02:09:26.576Z,99.90
2019-02-23T02:11:56.109Z,99.90
2019-02-23T02:14:25.580Z,99.90
2019-02-23T02:16:55.127Z,99.90
2019-02-23T02:19:24.584Z,99.90
2019-02-23T02:21:54.049Z,99.90
2019-02-23T02:24:23.596Z,99.90
2019-02-23T02:26:53.089Z,99.90
2019-02-23T02:29:22.495Z,99.90
2019-02-23T02:31:51.982Z,99.90
2019-02-23T02:34:21.857Z,99.90
2019-02-23T02:36:51.348Z,99.90
2019-02-23T02:39:20.816Z,99.90
2019-02-23T02:41:50.991Z,99.90
2019-02-23T02:44:20.418Z,99.90
2019-02-23T02:46:49.874Z,99.90
2019-02-23T02:49:19.295Z,99.90
2019-02-23T02:51:48.628Z,99.90
2019-02-23T02:54:18.509Z,99.90
2019-02-23T02:56:48.200Z,99.90
2019-02-23T02:59:17.723Z,99.90
2019-02-23T03:01:47.232Z,99.90
2019-02-23T03:04:17.054Z,99.90
2019-02-23T03:06:46.611Z,99.90
2019-02-23T03:09:16.063Z,99.90
2019-02-23T03:11:45.846Z,99.90
2019-02-23T03:14:15.379Z,99.90
2019-02-23T03:16:44.758Z,99.90
2019-02-23T03:19:14.284Z,99.90
2019-02-23T03:21:43.801Z,99.90
2019-02-23T03:24:13.229Z,99.90
2019-02-23T03:26:42.602Z,99.90
2019-02-23T03:29:12.033Z,99.90
2019-02-23T03:31:41.777Z,99.90
2019-02-23T03:34:11.081Z,99.90
2019-02-23T03:36:40.586Z,99.90
2019-02-23T03:39:10.087Z,99.90
2019-02-23T03:41:39.532Z,99.90
2019-02-23T03:44:08.996Z,99.90
2019-02-23T03:46:38.470Z,99.90
2019-02-23T03:49:07.851Z,99.90
2019-02-23T03:51:37.526Z,99.90
2019-02-23T03:54:07.085Z,99.90
2019-02-23T03:56:37.107Z,99.90
2019-02-23T03:59:06.616Z,99.90
2019-02-23T04:01:36.116Z,99.90
2019-02-23T04:04:05.729Z,99.90
2019-02-23T04:06:35.470Z,99.90
2019-02-23T04:09:05.671Z,99.90
2019-02-23T04:11:35.140Z,99.90
2019-02-23T04:14:06.088Z,99.90
2019-02-23T04:16:35.658Z,99.90
2019-02-23T04:19:05.466Z,99.90
2019-02-23T04:21:34.940Z,99.90
2019-02-23T04:24:04.354Z,99.90
2019-02-23T04:26:33.822Z,99.90
2019-02-23T04:29:03.258Z,99.90
2019-02-23T04:31:32.675Z,99.90
2019-02-23T04:34:02.179Z,99.90
2019-02-23T04:36:31.569Z,99.90
2019-02-23T04:39:01.252Z,99.90
2019-02-23T04:41:30.881Z,99.90
2019-02-23T04:44:00.257Z,99.90
2019-02-23T04:46:29.906Z,99.90
2019-02-23T04:48:59.378Z,99.90
2019-02-23T04:51:28.748Z,99.90
2019-02-23T04:53:58.287Z,99.90
2019-02-23T04:56:27.797Z,99.90
2019-02-23T04:58:57.433Z,99.90
2019-02-23T05:01:26.902Z,99.90
2019-02-23T05:03:56.370Z,99.90
2019-02-23T05:06:25.958Z,99.90
2019-02-23T05:08:56.601Z,99.90
2019-02-23T05:11:26.219Z,99.90
2019-02-23T05:13:55.856Z,99.90
2019-02-23T05:16:25.413Z,99.90
2019-02-23T05:18:55.047Z,99.90
2019-02-23T05:21:26.876Z,99.90
2019-02-23T05:23:56.232Z,99.90
2019-02-23T05:26:25.822Z,99.90
2019-02-23T05:28:55.408Z,99.90
2019-02-23T05:31:24.971Z,99.90
2019-02-23T05:33:54.365Z,99.90
2019-02-23T05:36:23.903Z,99.90
2019-02-23T05:38:53.375Z,99.90
2019-02-23T05:41:22.755Z,99.90
2019-02-23T05:43:52.310Z,99.90
2019-02-23T05:46:21.911Z,99.90
2019-02-23T05:48:51.425Z,99.90
2019-02-23T05:51:21.068Z,99.90
2019-02-23T05:53:50.618Z,99.90
2019-02-23T05:56:20.079Z,99.90
2019-02-23T05:58:49.603Z,99.90
2019-02-23T06:01:19.080Z,99.90
2019-02-23T06:03:48.482Z,99.90
2019-02-23T06:06:18.078Z,99.90
2019-02-23T06:08:47.654Z,99.90
2019-02-23T06:11:17.326Z,99.90
2019-02-23T06:13:46.965Z,99.90
2019-02-23T06:16:16.430Z,99.90
2019-02-23T06:18:46.071Z,99.90
2019-02-23T06:21:15.544Z,99.90
2019-02-23T06:23:45.048Z,99.90
2019-02-23T06:26:14.999Z,99.90
2019-02-23T06:28:44.484Z,99.90
2019-02-23T06:31:14.013Z,99.90
2019-02-23T06:33:43.434Z,99.90
2019-02-23T06:36:13.555Z,99.90
2019-02-23T06:38:43.015Z,99.90
2019-02-23T06:41:12.498Z,99.90
2019-02-23T06:43:42.055Z,99.90
2019-02-23T06:46:11.566Z,99.90
2019-02-23T06:48:41.342Z,99.90
2019-02-23T06:51:11.005Z,99.90
2019-02-23T06:53:40.506Z,99.90
2019-02-23T06:56:10.028Z,99.90
2019-02-23T06:58:39.473Z,99.90
2019-02-23T07:01:09.106Z,99.90
2019-02-23T07:03:38.714Z,99.90
2019-02-23T07:06:08.060Z,99.90
2019-02-23T07:08:37.563Z,99.90
2019-02-23T07:11:07.494Z,99.90
2019-02-23T07:13:36.942Z,99.90
2019-02-23T07:16:06.440Z,99.90
2019-02-23T07:18:36.125Z,99.90
2019-02-23T07:21:05.759Z,99.90
2019-02-23T07:23:35.251Z,99.90
2019-02-23T07:26:04.771Z,99.90
2019-02-23T07:28:34.205Z,99.90
2019-02-23T07:31:03.647Z,99.90
2019-02-23T07:33:33.424Z,99.90
2019-02-23T07:36:03.075Z,99.90
2019-02-23T07:38:32.709Z,99.90
2019-02-23T07:41:02.372Z,99.90
2019-02-23T07:43:32.539Z,99.90
2019-02-23T07:46:02.159Z,99.90
2019-02-23T07:48:31.869Z,99.90
2019-02-23T07:51:01.449Z,99.90
2019-02-23T07:53:31.191Z,99.90
2019-02-23T07:56:00.686Z,99.90
2019-02-23T07:58:30.340Z,99.90
2019-02-23T08:00:59.880Z,99.90
2019-02-23T08:03:30.736Z,99.90
2019-02-23T08:06:00.625Z,99.90
2019-02-23T08:08:30.209Z,99.90
2019-02-23T08:10:59.779Z,99.90
2019-02-23T08:13:29.553Z,99.90
2019-02-23T08:15:59.192Z,99.90
2019-02-23T08:18:29.122Z,99.90
2019-02-23T08:20:58.983Z,99.90
2019-02-23T08:23:28.770Z,99.80
2019-02-23T08:25:58.303Z,99.60
2019-02-23T08:28:27.930Z,99.60
2019-02-23T08:30:57.493Z,99.40
2019-02-23T08:33:27.226Z,99.30
2019-02-23T08:35:56.809Z,99.20
2019-02-23T08:38:26.395Z,99.30
2019-02-23T08:40:55.899Z,99.00
2019-02-23T08:43:25.468Z,98.90
2019-02-23T08:45:55.166Z,98.70
2019-02-23T08:48:24.853Z,98.30
2019-02-23T08:50:54.483Z,97.70
2019-02-23T08:53:24.036Z,97.80
2019-02-23T08:55:53.567Z,97.20
2019-02-23T08:58:23.301Z,97.00
2019-02-23T09:00:54.186Z,96.70
2019-02-23T09:03:23.770Z,96.40
2019-02-23T09:05:53.493Z,96.50
2019-02-23T09:08:23.063Z,96.30
2019-02-23T09:10:53.482Z,96.30
2019-02-23T09:13:23.202Z,96.10
2019-02-23T09:15:52.978Z,95.70
2019-02-23T09:18:22.487Z,95.40
2019-02-23T09:20:52.102Z,95.20
2019-02-23T09:23:21.983Z,94.70
2019-02-23T09:25:51.635Z,94.80
2019-02-23T09:28:21.225Z,94.70
2019-02-23T09:30:50.986Z,94.50
2019-02-23T09:33:20.499Z,94.40
2019-02-23T09:35:50.226Z,94.10
2019-02-23T09:38:19.771Z,93.50
2019-02-23T09:40:49.283Z,93.00
2019-02-23T09:43:19.018Z,92.80
2019-02-23T09:45:48.535Z,92.40
2019-02-23T09:48:18.360Z,92.40
2019-02-23T09:50:48.113Z,92.30
2019-02-23T09:53:17.665Z,91.70
2019-02-23T09:55:47.648Z,91.30
2019-02-23T09:58:17.371Z,91.30
2019-02-23T10:00:47.384Z,91.20
2019-02-23T10:03:17.108Z,90.50
2019-02-23T10:05:46.700Z,90.60
2019-02-23T10:08:16.435Z,90.00
2019-02-23T10:10:46.100Z,90.00
2019-02-23T10:13:15.714Z,89.80
2019-02-23T10:15:45.195Z,90.20
2019-02-23T10:18:14.985Z,89.60
2019-02-23T10:20:44.993Z,89.10
2019-02-23T10:23:21.497Z,89.00
2019-02-23T10:25:46.216Z,89.20
2019-02-23T10:28:15.820Z,88.70
2019-02-23T10:30:45.663Z,88.80
2019-02-23T10:33:15.368Z,89.00
2019-02-23T10:35:45.117Z,87.90
2019-02-23T10:38:14.911Z,87.30
2019-02-23T10:40:44.512Z,87.30
2019-02-23T10:43:14.016Z,87.10
2019-02-23T10:45:44.040Z,87.40
2019-02-23T10:48:14.014Z,87.40
2019-02-23T10:50:44.149Z,87.30
2019-02-23T10:53:14.033Z,87.10
2019-02-23T10:55:43.797Z,87.00
2019-02-23T10:58:13.615Z,86.50
2019-02-23T11:00:43.653Z,86.00
2019-02-23T11:03:13.338Z,86.80
2019-02-23T11:05:42.696Z,86.10
2019-02-23T11:08:12.318Z,85.80
2019-02-23T11:10:42.160Z,85.10
2019-02-23T11:13:11.771Z,85.00
2019-02-23T11:15:41.634Z,84.80
2019-02-23T11:18:11.275Z,84.60
2019-02-23T11:20:40.867Z,84.00
2019-02-23T11:23:10.522Z,84.20
2019-02-23T11:25:40.063Z,84.00
2019-02-23T11:28:09.853Z,83.60
2019-02-23T11:30:39.914Z,83.10
2019-02-23T11:33:09.435Z,82.10
2019-02-23T11:35:39.043Z,81.90
2019-02-23T11:38:08.705Z,81.60
2019-02-23T11:40:44.295Z,82.10
2019-02-23T11:43:13.912Z,81.10
2019-02-23T11:45:43.823Z,80.10
2019-02-23T11:48:13.500Z,79.90
2019-02-23T11:50:43.247Z,79.40
2019-02-23T11:53:12.727Z,79.40
2019-02-23T11:55:42.532Z,78.80
2019-02-23T11:58:12.112Z,76.00
2019-02-23T12:00:41.645Z,74.40
2019-02-23T12:03:12.228Z,74.40
2019-02-23T12:05:42.030Z,72.90
2019-02-23T12:08:11.580Z,72.70
2019-02-23T12:10:41.407Z,69.60
2019-02-23T12:13:10.975Z,60.80
2019-02-23T12:15:40.667Z,53.30
2019-02-23T12:18:10.247Z,47.90
2019-02-23T12:20:40.012Z,45.30
2019-02-23T12:23:09.941Z,43.30
2019-02-23T12:25:39.610Z,41.80
2019-02-23T12:28:09.506Z,39.50
2019-02-23T12:30:39.747Z,37.30
2019-02-23T12:33:09.361Z,37.50
2019-02-23T12:35:39.131Z,38.20
2019-02-23T12:38:08.741Z,38.00
2019-02-23T12:40:38.390Z,37.30
2019-02-23T12:43:08.163Z,36.80
2019-02-23T12:45:39.366Z,36.10
2019-02-23T12:48:09.038Z,35.00
2019-02-23T12:50:38.593Z,34.50
2019-02-23T12:53:08.534Z,34.50
2019-02-23T12:55:38.178Z,33.30
2019-02-23T12:58:07.675Z,34.50
2019-02-23T13:00:37.515Z,34.60
2019-02-23T13:03:07.912Z,33.90
2019-02-23T13:05:37.558Z,33.60
2019-02-23T13:08:07.410Z,34.10
2019-02-23T13:10:37.053Z,34.30
2019-02-23T13:13:32.363Z,34.70
2019-02-23T13:16:32.768Z,33.80
2019-02-23T13:19:48.488Z,34.60
2019-02-23T13:22:50.356Z,33.80
2019-02-23T13:25:42.748Z,32.30
2019-02-23T13:28:53.427Z,31.50
2019-02-23T13:31:42.553Z,30.70
2019-02-23T13:34:47.438Z,31.30
2019-02-23T13:37:34.673Z,30.60
2019-02-23T13:40:42.806Z,29.90
2019-02-23T13:43:30.741Z,30.50
2019-02-23T13:46:38.408Z,32.00
2019-02-23T13:49:56.166Z,31.80
2019-02-23T13:53:02.167Z,30.50
2019-02-23T13:56:17.574Z,30.00
2019-02-23T13:59:31.777Z,29.40
2019-02-23T14:02:42.206Z,28.80
2019-02-23T14:05:52.919Z,28.00
2019-02-23T14:08:57.637Z,27.70
2019-02-23T14:11:48.779Z,27.70
2019-02-23T14:14:34.537Z,27.50
2019-02-23T14:17:35.795Z,27.20
2019-02-23T14:20:42.260Z,27.10
2019-02-23T14:23:55.163Z,27.00
2019-02-23T14:27:01.005Z,27.50
2019-02-23T14:30:20.510Z,28.60
2019-02-23T14:33:20.465Z,28.80
2019-02-23T14:36:11.506Z,27.90
2019-02-23T14:39:16.326Z,26.80
2019-02-23T14:42:09.172Z,27.20
2019-02-23T14:45:01.844Z,27.10
2019-02-23T14:48:18.359Z,26.80
2019-02-23T14:51:17.140Z,26.70
2019-02-23T14:54:07.542Z,26.50
2019-02-23T14:57:04.777Z,27.20
2019-02-23T15:00:12.326Z,27.60
2019-02-23T15:03:25.857Z,27.90
2019-02-23T15:06:30.298Z,27.80
2019-02-23T15:09:35.247Z,27.90
2019-02-23T15:12:43.959Z,27.20
2019-02-23T15:15:57.462Z,26.20
2019-02-23T15:19:28.965Z,27.10
2019-02-23T15:22:45.518Z,30.00
2019-02-23T15:25:50.389Z,34.30
2019-02-23T15:29:25.198Z,38.30
2019-02-23T15:32:34.146Z,40.60
2019-02-23T15:35:22.356Z,43.00
2019-02-23T15:38:16.675Z,44.50
2019-02-23T15:41:08.640Z,45.30
2019-02-23T15:44:17.519Z,46.90
2019-02-23T15:47:00.156Z,48.00
2019-02-23T15:49:29.355Z,48.90
2019-02-23T15:51:59.399Z,50.00
2019-02-23T15:54:29.412Z,50.90
2019-02-23T15:56:59.249Z,52.20
2019-02-23T15:59:29.275Z,53.30
2019-02-23T16:01:59.815Z,54.00
2019-02-23T16:04:29.541Z,54.90
2019-02-23T16:06:59.245Z,55.60
2019-02-23T16:09:29.235Z,56.40
2019-02-23T16:11:59.453Z,56.90
2019-02-23T16:14:28.959Z,57.50
2019-02-23T16:16:58.596Z,58.10
2019-02-23T16:19:29.770Z,58.30
2019-02-23T16:22:00.779Z,59.00
2019-02-23T16:24:30.469Z,59.60
2019-02-23T16:27:00.221Z,60.20
2019-02-23T16:29:30.344Z,60.80
2019-02-23T16:32:01.335Z,62.20
2019-02-23T16:34:31.404Z,63.40
2019-02-23T16:37:01.248Z,64.20
2019-02-23T16:39:30.831Z,65.10
2019-02-23T16:42:01.844Z,65.90
2019-02-23T16:44:31.527Z,66.60
2019-02-23T16:47:01.039Z,67.30
2019-02-23T16:49:30.728Z,67.80
2019-02-23T16:52:00.426Z,68.30
2019-02-23T16:54:29.931Z,68.80
2019-02-23T16:56:59.958Z,69.40
2019-02-23T16:59:29.905Z,69.50
2019-02-23T17:01:59.898Z,70.10
2019-02-23T17:04:29.712Z,70.50
2019-02-23T17:06:59.725Z,70.80
2019-02-23T17:09:29.895Z,71.40
2019-02-23T17:12:01.801Z,72.20
2019-02-23T17:14:30.667Z,72.60
2019-02-23T17:17:00.165Z,73.40
2019-02-23T17:19:29.948Z,73.90
2019-02-23T17:21:59.584Z,74.30
2019-02-23T17:24:29.666Z,74.70
2019-02-23T17:26:59.345Z,75.20
2019-02-23T17:29:29.054Z,75.40
2019-02-23T17:31:59.196Z,75.90
2019-02-23T17:34:29.306Z,76.50
2019-02-23T17:37:00.388Z,77.00
2019-02-23T17:39:31.318Z,77.50
2019-02-23T17:42:01.312Z,78.30
2019-02-23T17:44:31.350Z,78.60
2019-02-23T17:47:01.110Z,78.70
2019-02-23T17:49:31.462Z,79.10
2019-02-23T17:52:01.498Z,79.70
2019-02-23T17:54:31.308Z,80.00
2019-02-23T17:57:01.237Z,80.40
2019-02-23T17:59:31.328Z,80.70
2019-02-23T18:02:01.203Z,81.40
2019-02-23T18:04:30.711Z,81.80
2019-02-23T18:07:00.758Z,82.30
2019-02-23T18:09:30.403Z,82.50
2019-02-23T18:12:00.157Z,82.80
2019-02-23T18:14:30.626Z,83.50
2019-02-23T18:17:00.487Z,83.90
2019-02-23T18:19:30.191Z,83.60
2019-02-23T18:21:59.703Z,83.80
2019-02-23T18:24:29.341Z,84.00
2019-02-23T18:26:59.595Z,84.30
2019-02-23T18:29:29.095Z,84.70
2019-02-23T18:31:58.862Z,85.10
2019-02-23T18:34:28.582Z,85.30
2019-02-23T18:36:58.383Z,85.70
2019-02-23T18:39:28.015Z,85.30
2019-02-23T18:41:57.811Z,85.70
2019-02-23T18:44:27.345Z,85.50
2019-02-23T18:46:57.096Z,85.30
2019-02-23T18:49:26.837Z,85.30
2019-02-23T18:51:56.433Z,85.50
2019-02-23T18:54:26.110Z,85.90
2019-02-23T18:56:55.761Z,86.00
2019-02-23T18:59:25.435Z,86.00
2019-02-23T19:01:55.122Z,86.40
2019-02-23T19:04:24.847Z,86.40
2019-02-23T19:06:54.305Z,86.60
2019-02-23T19:09:23.825Z,86.70
2019-02-23T19:11:53.292Z,86.60
2019-02-23T19:14:22.717Z,86.80
2019-02-23T19:16:52.306Z,86.40
2019-02-23T19:19:21.810Z,86.40
2019-02-23T19:21:52.093Z,86.60
2019-02-23T19:24:21.799Z,86.80
2019-02-23T19:26:51.376Z,86.70
2019-02-23T19:29:21.196Z,86.90
2019-02-23T19:31:50.869Z,86.80
2019-02-23T19:34:23.065Z,86.70
2019-02-23T19:36:53.358Z,86.90
2019-02-23T19:39:23.428Z,87.20
2019-02-23T19:41:53.267Z,87.50
2019-02-23T19:44:24.003Z,87.50
2019-02-23T19:46:58.261Z,87.70
2019-02-23T19:49:29.097Z,87.90
2019-02-23T19:51:59.683Z,87.70
2019-02-23T19:54:32.765Z,87.70
2019-02-23T19:57:04.114Z,87.70
2019-02-23T19:59:34.474Z,87.90
2019-02-23T20:02:04.560Z,88.30
2019-02-23T20:04:34.631Z,88.30
2019-02-23T20:07:05.420Z,88.50
2019-02-23T20:09:35.804Z,88.60
2019-02-23T20:12:08.908Z,88.70
2019-02-23T20:14:38.591Z,88.80
2019-02-23T20:17:08.294Z,89.00
2019-02-23T20:19:38.170Z,88.70
2019-02-23T20:22:08.033Z,88.40
2019-02-23T20:24:37.654Z,88.40
2019-02-23T20:27:07.174Z,88.40
2019-02-23T20:29:37.162Z,88.70
2019-02-23T20:32:06.691Z,89.00
2019-02-23T20:34:36.405Z,89.00
2019-02-23T20:37:06.486Z,89.30
2019-02-23T20:39:36.325Z,89.50
2019-02-23T20:42:06.349Z,89.70
2019-02-23T20:44:36.513Z,89.70
2019-02-23T20:47:06.119Z,89.60
2019-02-23T20:49:35.925Z,89.50
2019-02-23T20:52:05.761Z,88.90
2019-02-23T20:54:35.594Z,88.60
2019-02-23T20:57:08.000Z,88.30
2019-02-23T20:59:36.582Z,88.20
2019-02-23T21:02:06.932Z,88.20
2019-02-23T21:04:36.835Z,88.10
2019-02-23T21:07:06.721Z,87.70
2019-02-23T21:09:36.500Z,87.90
2019-02-23T21:12:06.176Z,88.20
2019-02-23T21:14:35.875Z,88.00
2019-02-23T21:17:05.982Z,87.90
2019-02-23T21:19:36.080Z,87.90
2019-02-23T21:22:05.607Z,88.10
2019-02-23T21:24:35.198Z,88.20
2019-02-23T21:27:12.645Z,88.20
2019-02-23T21:29:36.512Z,88.50
2019-02-23T21:32:06.518Z,88.50
2019-02-23T21:34:36.000Z,88.80
2019-02-23T21:37:05.782Z,89.10
2019-02-23T21:39:35.522Z,89.30
2019-02-23T21:42:05.444Z,89.20
2019-02-23T21:44:35.759Z,89.00
2019-02-23T21:47:05.571Z,89.00
2019-02-23T21:49:35.857Z,89.20
2019-02-23T21:52:05.557Z,89.40
2019-02-23T21:54:35.289Z,89.50
2019-02-23T21:57:05.036Z,89.50
2019-02-23T21:59:34.766Z,89.60
2019-02-23T22:02:04.839Z,89.70
2019-02-23T22:04:34.938Z,89.70
2019-02-23T22:07:04.664Z,89.80
2019-02-23T22:09:34.892Z,90.10
2019-02-23T22:12:04.831Z,90.10
2019-02-23T22:14:34.833Z,90.30
2019-02-23T22:17:04.773Z,90.60
2019-02-23T22:19:34.427Z,90.70
2019-02-23T22:22:05.056Z,90.80
2019-02-23T22:24:35.535Z,90.80
2019-02-23T22:27:06.100Z,90.80
2019-02-23T22:29:35.886Z,90.70
2019-02-23T22:32:05.555Z,90.80
2019-02-23T22:34:35.357Z,90.70
2019-02-23T22:37:05.510Z,90.70
2019-02-23T22:39:35.646Z,90.80
2019-02-23T22:42:05.749Z,90.80
2019-02-23T22:44:35.826Z,90.80
2019-02-23T22:47:05.967Z,90.80
2019-02-23T22:49:37.056Z,90.80
2019-02-23T22:52:06.913Z,90.90
2019-02-23T22:54:37.214Z,91.10
2019-02-23T22:57:07.149Z,91.20
2019-02-23T22:59:36.838Z,91.30
2019-02-23T23:02:06.671Z,91.40
2019-02-23T23:04:36.450Z,91.60
2019-02-23T23:07:06.484Z,91.60
2019-02-23T23:09:36.045Z,91.50
2019-02-23T23:12:06.071Z,91.60
2019-02-23T23:14:35.690Z,91.60
2019-02-23T23:17:06.529Z,91.70
2019-02-23T23:19:36.168Z,91.80
2019-02-23T23:22:05.644Z,91.90
2019-02-23T23:24:35.680Z,91.90
2019-02-23T23:27:05.765Z,91.90
2019-02-23T23:29:35.317Z,91.90
2019-02-23T23:32:04.854Z,92.00
2019-02-23T23:34:34.586Z,92.10
2019-02-23T23:37:04.445Z,92.10
2019-02-23T23:39:34.337Z,92.20
2019-02-23T23:42:04.431Z,92.40
2019-02-23T23:44:34.239Z,92.50
2019-02-23T23:47:04.430Z,92.70
2019-02-23T23:49:33.996Z,92.50
2019-02-23T23:52:03.544Z,92.40
2019-02-23T23:54:33.133Z,92.50
2019-02-23T23:57:02.917Z,92.90
2019-02-23T23:59:32.759Z,92.90
